Time;durP1;ratioP1;P1;durP2;ratioP2;P2;SDS_P1;SDS_P2;PMS_P1;PMS_P2;Temp;Humidity;BMP_temperature;BMP_pressure;BME280_temperature;BME280_humidity;BME280_pressure;Samples;Min_cycle;Max_cycle;Signal;HPM_P1;HPM_P2
2022/08/19 00:01:54;;;;;;;17.10;13.18;;;22.30;99.90;;;;;;4974248;28;20054;-51
2022/08/19 00:04:23;;;;;;;13.68;12.27;;;22.30;99.90;;;;;;4974134;28;20050;-47
2022/08/19 00:06:48;;;;;;;14.27;12.23;;;22.30;99.90;;;;;;4974104;28;20034;-48
2022/08/19 00:09:16;;;;;;;14.38;11.93;;;22.30;99.90;;;;;;4973960;28;20493;-49
2022/08/19 00:11:43;;;;;;;13.65;12.07;;;22.30;99.90;;;;;;4973683;28;20035;-48
2022/08/19 00:14:11;;;;;;;16.50;12.25;;;22.30;99.90;;;;;;4972670;28;20041;-55
2022/08/19 00:16:41;;;;;;;16.38;12.23;;;22.30;99.90;;;;;;4973683;28;20035;-52
2022/08/19 00:19:07;;;;;;;13.23;11.82;;;22.30;99.90;;;;;;4973757;28;20488;-54
2022/08/19 00:21:37;;;;;;;13.02;11.65;;;22.30;99.90;;;;;;4973621;28;20023;-50
2022/08/19 00:24:03;;;;;;;15.45;13.52;;;22.20;99.90;;;;;;4973532;28;20106;-49
2022/08/19 00:26:29;;;;;;;15.68;12.93;;;22.20;99.90;;;;;;4973638;28;20455;-52
2022/08/19 00:28:55;;;;;;;13.57;12.20;;;22.20;99.90;;;;;;4973634;28;20105;-49
2022/08/19 00:31:21;;;;;;;14.20;11.00;;;22.20;99.90;;;;;;4973503;28;20113;-49
2022/08/19 00:33:50;;;;;;;14.95;12.15;;;22.20;99.90;;;;;;4973248;28;20030;-45
2022/08/19 00:36:16;;;;;;;13.65;12.18;;;22.20;99.90;;;;;;4973628;28;20055;-51
2022/08/19 00:38:43;;;;;;;19.33;12.45;;;22.10;99.90;;;;;;4973409;28;20027;-49
2022/08/19 00:41:11;;;;;;;14.30;12.73;;;22.10;99.90;;;;;;4973248;28;20027;-54
2022/08/19 00:43:38;;;;;;;15.18;13.20;;;22.10;99.90;;;;;;4971780;28;20026;-48
2022/08/19 00:46:04;;;;;;;14.88;13.25;;;22.20;99.90;;;;;;4973386;28;20027;-50
2022/08/19 00:48:31;;;;;;;18.00;14.10;;;22.10;99.90;;;;;;4973343;28;20106;-49
2022/08/19 00:50:58;;;;;;;15.40;13.73;;;22.10;99.90;;;;;;4972038;28;20042;-49
2022/08/19 00:53:27;;;;;;;15.40;12.80;;;22.10;99.90;;;;;;4973541;28;20034;-51
2022/08/19 00:55:54;;;;;;;16.90;12.80;;;22.00;99.90;;;;;;4972208;28;20081;-51
2022/08/19 00:58:24;;;;;;;15.63;13.55;;;22.00;99.90;;;;;;4973473;28;20114;-50
2022/08/19 01:00:49;;;;;;;15.07;13.05;;;22.00;99.90;;;;;;4971959;28;20022;-48
2022/08/19 01:03:18;;;;;;;15.48;13.88;;;22.00;99.90;;;;;;4973138;28;20026;-52
2022/08/19 01:05:45;;;;;;;14.30;12.52;;;22.10;99.90;;;;;;4972319;28;20136;-55
2022/08/19 01:08:13;;;;;;;14.75;13.23;;;22.10;99.90;;;;;;4973620;28;20412;-52
2022/08/19 01:10:53;;;;;;;12.98;11.63;;;22.10;99.90;;;;;;4972140;28;20038;-51
2022/08/19 01:13:21;;;;;;;14.55;12.70;;;22.10;99.90;;;;;;4972899;28;20042;-49
2022/08/19 01:15:54;;;;;;;14.40;12.65;;;22.10;99.90;;;;;;4973424;28;20038;-52
2022/08/19 01:18:20;;;;;;;17.35;12.23;;;22.10;99.90;;;;;;4973076;28;20026;-55
2022/08/19 01:20:47;;;;;;;16.08;13.18;;;22.10;99.90;;;;;;4973073;28;20038;-52
2022/08/19 01:23:14;;;;;;;15.13;12.48;;;22.10;99.90;;;;;;4972938;28;20396;-55
2022/08/19 01:25:46;;;;;;;13.98;12.43;;;22.10;99.90;;;;;;4973039;28;20030;-49
2022/08/19 01:28:21;;;;;;;13.35;11.73;;;22.10;99.90;;;;;;4973565;28;20039;-50
2022/08/19 01:30:46;;;;;;;;;;;22.10;99.90;;;;;;4973663;28;20045;-51
2022/08/19 01:33:12;;;;;;;18.05;13.38;;;22.10;99.90;;;;;;4973006;28;20001;-49
2022/08/19 01:35:38;;;;;;;17.67;13.15;;;22.10;99.90;;;;;;4973133;28;20461;-46
2022/08/19 01:38:07;;;;;;;16.83;13.32;;;22.10;99.90;;;;;;4973249;28;20077;-47
2022/08/19 01:40:35;;;;;;;15.00;13.27;;;22.10;99.90;;;;;;4973136;28;20019;-51
2022/08/19 01:43:02;;;;;;;17.77;13.05;;;22.10;99.90;;;;;;4972490;28;20031;-50
2022/08/19 01:45:31;;;;;;;14.15;12.65;;;22.10;99.90;;;;;;4972925;28;20023;-54
2022/08/19 01:47:57;;;;;;;14.63;12.85;;;22.10;99.90;;;;;;4973604;28;20511;-49
2022/08/19 01:50:24;;;;;;;16.00;12.75;;;22.10;99.90;;;;;;4972821;28;20038;-49
2022/08/19 01:52:49;;;;;;;15.35;13.52;;;22.10;99.90;;;;;;4972831;28;20074;-52
2022/08/19 01:55:18;;;;;;;14.15;12.63;;;22.10;99.90;;;;;;4973193;28;20034;-51
2022/08/19 01:57:48;;;;;;;15.40;13.00;;;22.10;99.90;;;;;;4972844;28;20034;-53
2022/08/19 02:00:17;;;;;;;16.85;13.32;;;22.10;99.90;;;;;;4972126;28;20023;-50
2022/08/19 02:02:42;;;;;;;14.57;12.88;;;22.10;99.90;;;;;;4975667;28;20520;-56
2022/08/19 02:05:08;;;;;;;16.83;13.07;;;22.10;99.90;;;;;;4976508;28;20029;-50
2022/08/19 02:07:39;;;;;;;17.42;12.88;;;22.10;99.90;;;;;;4976240;28;20034;-49
2022/08/19 02:10:13;;;;;;;20.52;14.55;;;22.00;99.90;;;;;;4976418;28;20311;-50
2022/08/19 02:12:39;;;;;;;17.23;14.73;;;22.00;99.90;;;;;;4976217;28;20027;-55
2022/08/19 02:15:05;;;;;;;15.85;12.70;;;22.00;99.90;;;;;;4976282;28;20037;-49
2022/08/19 02:17:31;;;;;;;15.50;13.43;;;22.00;99.90;;;;;;4976371;28;20041;-50
2022/08/19 02:19:57;;;;;;;14.32;12.82;;;22.00;99.90;;;;;;4976109;28;20559;-54
2022/08/19 02:22:25;;;;;;;21.70;13.32;;;21.90;99.90;;;;;;4975993;28;20027;-50
2022/08/19 02:24:54;;;;;;;18.38;15.00;;;21.90;99.90;;;;;;4976175;28;20461;-57
2022/08/19 02:27:21;;;;;;;14.73;13.07;;;21.90;99.90;;;;;;4976443;28;20484;-52
2022/08/19 02:29:48;;;;;;;18.27;14.10;;;21.90;99.90;;;;;;4976531;28;20031;-47
2022/08/19 02:32:14;;;;;;;15.88;13.18;;;21.90;99.90;;;;;;4976035;28;20031;-54
2022/08/19 02:34:40;;;;;;;15.10;13.43;;;21.80;99.90;;;;;;4976224;28;20106;-52
2022/08/19 02:38:24;;;;;;;18.15;14.73;;;21.90;99.90;;;;;;4974770;28;20389;-53
2022/08/19 02:39:52;;;;;;;17.80;13.88;;;21.90;99.90;;;;;;4975755;28;20497;-50
2022/08/19 02:42:17;;;;;;;15.80;13.55;;;21.90;99.90;;;;;;4975487;28;20085;-47
2022/08/19 02:44:43;;;;;;;17.20;13.93;;;21.90;99.90;;;;;;4975981;28;20050;-51
2022/08/19 02:47:09;;;;;;;17.08;13.73;;;21.80;99.90;;;;;;4975873;28;20034;-55
2022/08/19 02:49:35;;;;;;;18.00;14.70;;;21.90;99.90;;;;;;4975482;28;20023;-51
2022/08/19 02:52:01;;;;;;;16.08;14.13;;;21.80;99.90;;;;;;4975438;28;20026;-54
2022/08/19 02:54:27;;;;;;;15.25;13.30;;;21.80;99.90;;;;;;4975809;28;20047;-50
2022/08/19 02:56:52;;;;;;;17.75;14.05;;;21.80;99.90;;;;;;4975479;28;20030;-54
2022/08/19 02:59:18;;;;;;;17.50;13.80;;;21.80;99.90;;;;;;4975515;28;20506;-52
2022/08/19 03:01:43;;;;;;;16.15;14.45;;;21.80;99.90;;;;;;4974907;28;20058;-55
2022/08/19 03:04:11;;;;;;;15.10;12.93;;;21.80;99.90;;;;;;4975481;28;20106;-49
2022/08/19 03:06:38;;;;;;;16.73;14.23;;;21.70;99.90;;;;;;4975555;28;20023;-50
2022/08/19 03:09:03;;;;;;;17.13;14.18;;;21.70;99.90;;;;;;4975595;28;20027;-50
2022/08/19 03:11:31;;;;;;;18.20;15.27;;;21.70;99.90;;;;;;4975335;28;20106;-49
2022/08/19 03:13:58;;;;;;;21.98;16.42;;;21.70;99.90;;;;;;4974287;28;20448;-50
2022/08/19 03:16:26;;;;;;;16.25;14.00;;;21.70;99.90;;;;;;4974150;28;20399;-53
2022/08/19 03:18:53;;;;;;;18.38;15.15;;;21.70;99.90;;;;;;4974913;28;20031;-51
2022/08/19 03:21:24;;;;;;;16.63;14.82;;;21.70;99.90;;;;;;4974803;28;20019;-51
2022/08/19 03:23:53;;;;;;;17.85;15.63;;;21.70;99.90;;;;;;4974608;28;20037;-51
2022/08/19 03:26:18;;;;;;;16.17;14.48;;;21.60;99.90;;;;;;4974766;28;20511;-53
2022/08/19 03:28:49;;;;;;;17.77;15.65;;;21.60;99.90;;;;;;4973458;28;20074;-54
2022/08/19 03:31:17;;;;;;;16.27;14.55;;;21.60;99.90;;;;;;4974668;28;20146;-52
2022/08/19 03:33:43;;;;;;;17.08;14.70;;;21.60;99.90;;;;;;4974466;28;20038;-50
2022/08/19 03:36:12;;;;;;;16.15;13.80;;;21.60;99.90;;;;;;4974624;28;20492;-51
2022/08/19 03:38:45;;;;;;;22.27;15.15;;;21.60;99.90;;;;;;4974638;28;20113;-52
2022/08/19 03:41:15;;;;;;;16.23;14.07;;;21.60;99.90;;;;;;4974472;28;20144;-51
2022/08/19 03:43:41;;;;;;;17.55;14.07;;;21.60;99.90;;;;;;4974295;28;20023;-49
2022/08/19 03:46:12;;;;;;;17.00;14.30;;;21.50;99.90;;;;;;4974305;28;20049;-53
2022/08/19 03:48:40;;;;;;;14.40;12.93;;;21.60;99.90;;;;;;4974444;28;20026;-55
2022/08/19 03:51:07;;;;;;;15.55;13.90;;;21.60;99.90;;;;;;4974202;28;20042;-51
2022/08/19 03:53:34;;;;;;;16.15;14.45;;;21.50;99.90;;;;;;4973977;28;20030;-53
2022/08/19 03:56:00;;;;;;;18.58;14.07;;;21.60;99.90;;;;;;4972876;28;20027;-47
2022/08/19 03:58:28;;;;;;;16.88;13.13;;;21.60;99.90;;;;;;4974211;28;20052;-49
2022/08/19 04:00:55;;;;;;;14.80;11.93;;;21.60;99.90;;;;;;4973975;28;20097;-50
2022/08/19 04:03:21;;;;;;;16.27;14.45;;;21.50;99.90;;;;;;4973930;28;20098;-54
2022/08/19 04:05:47;;;;;;;14.48;12.50;;;21.60;99.90;;;;;;4974178;28;20106;-55
2022/08/19 04:08:15;;;;;;;14.65;12.48;;;21.60;99.90;;;;;;4972615;28;20030;-51
2022/08/19 04:10:41;;;;;;;18.90;13.80;;;21.60;99.90;;;;;;4973964;28;20033;-49
2022/08/19 04:13:08;;;;;;;17.92;13.43;;;21.50;99.90;;;;;;4973652;28;20025;-53
2022/08/19 04:15:41;;;;;;;14.85;13.30;;;21.50;99.90;;;;;;4972703;28;20034;-51
2022/08/19 04:18:07;;;;;;;17.17;13.52;;;21.50;99.90;;;;;;4973861;28;20109;-51
2022/08/19 04:20:38;;;;;;;15.50;12.73;;;21.50;99.90;;;;;;4973665;28;20546;-50
2022/08/19 04:23:03;;;;;;;15.45;13.40;;;21.40;99.90;;;;;;4972150;28;20030;-50
2022/08/19 04:25:35;;;;;;;21.63;14.27;;;21.40;99.90;;;;;;4973507;28;20038;-50
2022/08/19 04:28:01;;;;;;;18.00;13.07;;;21.40;99.90;;;;;;4973778;28;20404;-49
2022/08/19 04:30:26;;;;;;;16.58;13.27;;;21.40;99.90;;;;;;4973541;28;20031;-52
2022/08/19 04:32:52;;;;;;;15.27;12.85;;;21.40;99.90;;;;;;4971939;28;20046;-53
2022/08/19 04:35:17;;;;;;;17.42;13.30;;;21.40;99.90;;;;;;4973389;28;20078;-50
2022/08/19 04:37:43;;;;;;;17.95;14.75;;;21.30;99.90;;;;;;4973421;28;20046;-48
2022/08/19 04:42:53;;;;;;;15.88;14.07;;;21.30;99.90;;;;;;4973183;28;20038;-53
2022/08/19 04:45:18;;;;;;;17.63;13.85;;;21.30;99.90;;;;;;4973529;28;20023;-52
2022/08/19 04:47:44;;;;;;;17.92;13.48;;;21.30;99.90;;;;;;4973293;28;20027;-47
2022/08/19 04:52:43;;;;;;;14.95;13.38;;;21.30;99.90;;;;;;4973685;23;20429;-48
2022/08/19 04:55:11;;;;;;;15.23;13.63;;;21.30;99.90;;;;;;4954115;29;20063;-48
2022/08/19 04:57:39;;;;;;;15.00;12.82;;;21.30;99.90;;;;;;4954213;29;20023;-50
2022/08/19 05:00:07;;;;;;;16.17;11.57;;;21.20;99.90;;;;;;4953400;28;20020;-52
2022/08/19 05:02:32;;;;;;;14.18;12.68;;;21.30;99.90;;;;;;4953539;28;20098;-48
2022/08/19 05:05:00;;;;;;;20.67;13.20;;;21.30;99.90;;;;;;4953811;29;20532;-48
2022/08/19 05:07:27;;;;;;;13.65;12.25;;;21.30;99.90;;;;;;4953962;28;20028;-51
2022/08/19 05:09:52;;;;;;;14.52;13.00;;;21.40;99.90;;;;;;4953768;29;20125;-50
2022/08/19 05:12:18;;;;;;;14.45;13.05;;;21.40;99.90;;;;;;4953646;28;20113;-52
2022/08/19 05:14:44;;;;;;;15.75;13.20;;;21.50;99.90;;;;;;4953621;29;20070;-53
2022/08/19 05:17:10;;;;;;;13.15;11.82;;;21.60;99.90;;;;;;4953619;28;20080;-54
2022/08/19 05:22:32;;;;;;;15.90;12.18;;;21.80;99.90;;;;;;4953459;28;20033;-50
2022/08/19 05:24:58;;;;;;;18.00;12.55;;;21.80;99.90;;;;;;4953470;29;20102;-49
2022/08/19 05:27:23;;;;;;;13.80;12.40;;;22.00;99.90;;;;;;4953449;29;20028;-51
2022/08/19 05:29:49;;;;;;;16.08;12.75;;;22.10;99.90;;;;;;4953502;29;20034;-52
2022/08/19 05:32:14;;;;;;;15.32;12.02;;;22.30;99.90;;;;;;4953037;28;20090;-52
2022/08/19 05:34:40;;;;;;;14.60;11.15;;;22.50;99.90;;;;;;4953432;29;20032;-48
2022/08/19 05:37:07;;;;;;;15.65;12.50;;;22.70;99.90;;;;;;4956255;28;20515;-46
2022/08/19 05:39:35;;;;;;;13.95;11.65;;;22.90;99.90;;;;;;4959727;28;20098;-46
2022/08/19 05:42:06;;;;;;;15.50;11.10;;;23.10;99.90;;;;;;4959398;28;20027;-46
2022/08/19 05:44:34;;;;;;;14.57;11.13;;;23.20;99.90;;;;;;4959917;28;20046;-50
2022/08/19 05:47:01;;;;;;;15.65;11.77;;;23.40;99.90;;;;;;4958642;28;20023;-46
2022/08/19 05:49:28;;;;;;;13.43;10.55;;;23.50;99.90;;;;;;4960042;28;20027;-46
2022/08/19 05:51:55;;;;;;;16.60;11.32;;;23.70;99.90;;;;;;4959316;28;20420;-46
2022/08/19 05:54:22;;;;;;;11.93;10.38;;;23.80;99.90;;;;;;4959716;28;20515;-45
2022/08/19 05:56:49;;;;;;;17.75;11.65;;;23.90;99.90;;;;;;4959666;28;20031;-46
2022/08/19 05:59:16;;;;;;;14.82;11.07;;;24.10;99.90;;;;;;4959606;28;20042;-50
2022/08/19 06:01:45;;;;;;;12.02;10.82;;;24.20;99.90;;;;;;4959137;28;20447;-49
2022/08/19 06:04:12;;;;;;;10.77;9.75;;;24.50;99.90;;;;;;4959158;28;20026;-47
2022/08/19 06:06:37;;;;;;;10.82;9.70;;;24.70;99.90;;;;;;4959544;28;20027;-46
2022/08/19 06:09:04;;;;;;;10.77;9.68;;;24.90;99.90;;;;;;4959457;28;20120;-51
2022/08/19 06:11:48;;;;;;;12.20;8.98;;;25.30;99.90;;;;;;4959356;28;20035;-45
2022/08/19 06:14:18;;;;;;;10.93;8.40;;;25.50;99.60;;;;;;4959138;28;20039;-46
2022/08/19 06:16:44;;;;;;;13.73;9.38;;;25.90;99.00;;;;;;4959423;28;20038;-47
2022/08/19 06:19:14;;;;;;;9.82;8.93;;;26.30;98.40;;;;;;4958060;29;20064;-48
2022/08/19 06:21:42;;;;;;;11.93;9.60;;;26.50;97.80;;;;;;4959294;28;20031;-48
2022/08/19 06:24:11;;;;;;;14.27;9.23;;;26.60;97.40;;;;;;4959134;28;20027;-52
2022/08/19 06:26:39;;;;;;;8.63;7.53;;;27.00;97.20;;;;;;4958292;28;20022;-49
2022/08/19 06:29:06;;;;;;;11.90;8.52;;;27.30;96.70;;;;;;4949927;28;20026;-51
2022/08/19 06:31:34;;;;;;;11.88;9.10;;;27.20;96.50;;;;;;4938721;29;20023;-50
2022/08/19 06:34:04;;;;;;;10.18;8.43;;;27.00;96.90;;;;;;4953941;29;20023;-52
2022/08/19 06:36:36;;;;;;;9.38;8.27;;;27.20;96.60;;;;;;4958445;29;20118;-52
2022/08/19 06:39:08;;;;;;;8.75;7.53;;;27.00;96.60;;;;;;4959685;28;20027;-54
2022/08/19 06:41:40;;;;;;;10.27;8.52;;;27.10;96.60;;;;;;4960272;28;20042;-50
2022/08/19 06:44:07;;;;;;;10.40;7.15;;;27.20;96.50;;;;;;4959357;28;20445;-50
2022/08/19 06:46:33;;;;;;;9.82;7.95;;;27.50;96.00;;;;;;4958809;29;20027;-50
2022/08/19 06:48:59;;;;;;;10.30;7.60;;;28.00;95.60;;;;;;4956756;28;20064;-49
2022/08/19 06:51:26;;;;;;;10.63;8.15;;;28.60;94.70;;;;;;4955936;29;20446;-55
2022/08/19 06:53:54;;;;;;;9.02;6.43;;;29.00;93.90;;;;;;4956125;28;20035;-51
2022/08/19 06:56:31;;;;;;;7.57;6.65;;;29.50;93.20;;;;;;4956278;28;20031;-51
2022/08/19 06:58:58;;;;;;;11.98;7.60;;;29.60;92.80;;;;;;4955904;28;20032;-47
2022/08/19 07:01:23;;;;;;;7.88;6.95;;;29.70;92.40;;;;;;4956012;28;20046;-44
2022/08/19 07:03:49;;;;;;;6.97;6.32;;;30.00;92.30;;;;;;4955935;28;20031;-45
2022/08/19 07:06:17;;;;;;;7.72;6.40;;;30.20;91.90;;;;;;4955935;29;20038;-45
2022/08/19 07:08:44;;;;;;;9.25;5.90;;;30.40;91.60;;;;;;4956273;28;20034;-43
2022/08/19 07:11:12;;;;;;;7.93;6.60;;;30.20;91.60;;;;;;4955938;28;20035;-47
2022/08/19 07:13:39;;;;;;;8.90;6.07;;;30.40;91.40;;;;;;4955678;28;20031;-45
2022/08/19 07:16:09;;;;;;;8.95;5.55;;;30.40;90.90;;;;;;4954805;29;20519;-46
2022/08/19 07:18:35;;;;;;;8.38;6.00;;;30.30;90.90;;;;;;4955823;28;20445;-42
2022/08/19 07:21:14;;;;;;;10.65;6.00;;;30.30;90.90;;;;;;4955702;28;20114;-44
2022/08/19 07:23:41;;;;;;;7.50;5.85;;;30.30;90.80;;;;;;4955839;28;20023;-45
2022/08/19 07:26:19;;;;;;;7.95;6.03;;;30.30;90.30;;;;;;4957049;28;20463;-47
2022/08/19 07:28:45;;;;;;;9.02;6.28;;;29.60;91.00;;;;;;4958433;28;20037;-44
2022/08/19 07:31:13;;;;;;;5.93;5.40;;;29.00;91.40;;;;;;4957724;28;20063;-46
2022/08/19 07:33:40;;;;;;;7.50;5.30;;;29.00;92.00;;;;;;4956000;28;20065;-47
2022/08/19 07:36:11;;;;;;;5.20;4.70;;;29.60;91.30;;;;;;4956273;28;20058;-43
2022/08/19 07:38:38;;;;;;;6.97;5.10;;;30.10;90.80;;;;;;4955705;28;20027;-45
2022/08/19 07:41:03;;;;;;;6.53;5.28;;;30.30;90.10;;;;;;4955654;28;20046;-46
2022/08/19 07:43:29;;;;;;;5.55;4.78;;;30.20;90.10;;;;;;4955687;29;20077;-42
2022/08/19 07:45:58;;;;;;;5.85;4.85;;;29.80;90.20;;;;;;4960316;29;20220;-42
2022/08/19 07:48:25;;;;;;;6.90;4.88;;;29.80;90.50;;;;;;4957185;28;20034;-46
2022/08/19 07:50:56;;;;;;;4.05;3.65;;;29.60;90.60;;;;;;4954472;29;20035;-43
2022/08/19 07:53:24;;;;;;;4.60;4.20;;;29.40;90.80;;;;;;4955507;28;20393;-43
2022/08/19 07:55:49;;;;;;;9.85;5.30;;;29.60;90.60;;;;;;4955925;28;20031;-41
2022/08/19 07:58:19;;;;;;;5.97;4.85;;;29.50;90.80;;;;;;4955762;29;20035;-45
2022/08/19 08:00:47;;;;;;;6.53;4.75;;;29.90;90.50;;;;;;4955205;28;20154;-44
2022/08/19 08:03:14;;;;;;;7.10;5.07;;;30.30;90.00;;;;;;4955651;28;20027;-43
2022/08/19 08:11:05;;;;;;;8.52;4.93;;;31.20;87.30;;;;;;4954918;28;20047;-44
2022/08/19 08:13:30;;;;;;;5.35;4.85;;;30.90;87.10;;;;;;4954834;29;20493;-44
2022/08/19 08:15:57;;;;;;;7.93;5.38;;;30.70;87.50;;;;;;4955142;29;20046;-42
2022/08/19 08:18:24;;;;;;;5.88;5.18;;;30.20;88.10;;;;;;4954387;29;20063;-44
2022/08/19 08:20:49;;;;;;;5.88;4.30;;;30.20;89.00;;;;;;4954620;28;20034;-45
2022/08/19 08:23:28;;;;;;;8.07;5.00;;;30.60;87.70;;;;;;4953026;29;20023;-49
2022/08/19 08:25:57;;;;;;;5.90;5.30;;;31.00;86.30;;;;;;4954598;28;20422;-47
2022/08/19 08:28:22;;;;;;;6.32;4.60;;;31.80;84.90;;;;;;4954393;28;20062;-49
2022/08/19 08:30:49;;;;;;;4.40;4.00;;;32.00;83.50;;;;;;4954999;28;20027;-44
2022/08/19 08:33:23;;;;;;;5.95;4.50;;;32.20;82.60;;;;;;4954260;28;20035;-45
2022/08/19 08:35:49;;;;;;;5.03;4.35;;;32.40;83.10;;;;;;4953547;29;20038;-45
2022/08/19 08:38:17;;;;;;;5.03;4.03;;;33.20;82.00;;;;;;4955001;29;20031;-46
2022/08/19 08:40:50;;;;;;;6.50;4.60;;;33.90;80.70;;;;;;4954293;28;20495;-49
2022/08/19 08:43:22;;;;;;;5.47;4.57;;;34.30;78.80;;;;;;4954406;28;20042;-46
2022/08/19 08:45:58;;;;;;;5.22;4.10;;;34.40;78.20;;;;;;4952985;29;20085;-45
2022/08/19 08:48:54;;;;;;;9.32;4.82;;;33.20;79.20;;;;;;4954661;28;20027;-46
2022/08/19 08:51:26;;;;;;;4.38;3.95;;;33.00;79.80;;;;;;4943006;28;20404;-44
2022/08/19 08:53:53;;;;;;;4.75;4.20;;;32.40;81.00;;;;;;4954572;28;20031;-45
2022/08/19 08:56:19;;;;;;;5.38;4.07;;;32.30;80.40;;;;;;4954414;28;20039;-48
2022/08/19 08:58:49;;;;;;;6.18;3.75;;;32.80;80.10;;;;;;4954136;28;20038;-50
2022/08/19 09:01:15;;;;;;;6.97;4.30;;;32.80;78.80;;;;;;4954069;28;20078;-51
2022/08/19 09:03:42;;;;;;;7.85;4.35;;;33.00;78.90;;;;;;4954181;29;20031;-49
2022/08/19 09:06:23;;;;;;;6.43;4.60;;;33.20;78.50;;;;;;4953972;28;20030;-45
2022/08/19 09:08:59;;;;;;;5.60;4.30;;;32.60;77.90;;;;;;4953402;28;20066;-46
2022/08/19 09:11:38;;;;;;;8.02;4.25;;;31.00;80.60;;;;;;4951916;28;20023;-44
2022/08/19 09:14:29;;;;;;;7.32;4.10;;;30.70;81.50;;;;;;4953592;29;20114;-48
2022/08/19 09:16:54;;;;;;;6.28;3.88;;;30.70;81.90;;;;;;4952019;29;20035;-45
2022/08/19 09:19:20;;;;;;;4.20;3.90;;;30.30;82.70;;;;;;4952759;29;20027;-50
2022/08/19 09:21:45;;;;;;;4.55;4.10;;;30.30;82.70;;;;;;4953427;28;20086;-48
2022/08/19 09:24:11;;;;;;;5.18;3.80;;;30.30;83.40;;;;;;4953741;29;20031;-48
2022/08/19 09:26:36;;;;;;;4.50;4.10;;;30.20;83.40;;;;;;4954029;29;20070;-51
2022/08/19 09:29:04;;;;;;;5.28;3.78;;;30.60;83.10;;;;;;4953498;29;20397;-48
2022/08/19 09:31:32;;;;;;;4.53;4.00;;;31.00;82.20;;;;;;4953643;28;20027;-48
2022/08/19 09:33:59;;;;;;;5.68;4.47;;;31.20;81.10;;;;;;4953881;28;20445;-49
2022/08/19 09:36:28;;;;;;;7.10;4.53;;;31.10;81.00;;;;;;4953705;28;20023;-45
2022/08/19 09:38:54;;;;;;;5.10;4.60;;;31.00;81.10;;;;;;4953700;28;20050;-50
2022/08/19 09:41:24;;;;;;;5.20;4.70;;;30.30;81.30;;;;;;4953545;28;20023;-48
2022/08/19 09:43:55;;;;;;;6.30;5.80;;;30.20;81.30;;;;;;4953047;28;20456;-48
2022/08/19 09:46:22;;;;;;;10.25;5.60;;;29.90;81.90;;;;;;4953770;28;20020;-50
2022/08/19 09:48:50;;;;;;;6.03;5.40;;;29.80;82.80;;;;;;4953705;28;20130;-49
2022/08/19 09:51:19;;;;;;;7.95;6.05;;;29.90;82.00;;;;;;4953349;28;20114;-51
2022/08/19 09:53:46;;;;;;;6.47;5.85;;;30.00;82.20;;;;;;4953219;28;20131;-48
2022/08/19 09:56:13;;;;;;;9.23;6.43;;;29.80;82.50;;;;;;4953676;28;20035;-50
2022/08/19 09:58:40;;;;;;;7.47;5.80;;;30.00;82.50;;;;;;4953441;28;20500;-49
2022/08/19 10:01:06;;;;;;;11.00;7.47;;;30.10;82.20;;;;;;4953309;28;20079;-49
2022/08/19 10:03:34;;;;;;;8.80;7.80;;;30.10;81.50;;;;;;4953034;28;20027;-45
2022/08/19 10:06:02;;;;;;;6.60;5.97;;;29.20;82.40;;;;;;4953469;28;20031;-48
2022/08/19 10:08:34;;;;;;;5.43;5.03;;;28.80;83.50;;;;;;4952809;28;20037;-48
2022/08/19 10:11:01;;;;;;;6.78;6.15;;;28.50;83.80;;;;;;4953277;28;20043;-49
2022/08/19 10:13:28;;;;;;;9.85;8.95;;;28.30;85.00;;;;;;4953418;28;20031;-52
2022/08/19 10:16:01;;;;;;;10.93;9.55;;;28.20;85.90;;;;;;4953773;28;20027;-48
2022/08/19 10:18:27;;;;;;;15.60;12.00;;;28.50;87.00;;;;;;4952769;29;20041;-48
2022/08/19 10:21:01;;;;;;;33.05;27.08;;;28.20;86.40;;;;;;4954003;28;20464;-45
2022/08/19 10:23:28;;;;;;;;;;;28.40;85.80;;;;;;4957050;28;20024;-51
2022/08/19 10:25:53;;;;;;;12.43;8.82;;;28.60;85.40;;;;;;4957215;28;19911;-49
2022/08/19 10:28:19;;;;;;;10.10;9.18;;;28.60;85.00;;;;;;4956785;29;20038;-45
2022/08/19 10:30:45;;;;;;;11.32;9.65;;;28.60;84.60;;;;;;4956864;28;20457;-47
2022/08/19 10:33:10;;;;;;;11.73;9.30;;;28.50;85.20;;;;;;4956616;28;20374;-46
2022/08/19 10:35:36;;;;;;;12.63;10.80;;;28.50;86.70;;;;;;4956291;29;20062;-53
2022/08/19 10:38:01;;;;;;;12.35;11.13;;;28.50;86.10;;;;;;4957403;29;20031;-47
2022/08/19 10:40:28;;;;;;;10.82;9.85;;;28.60;85.30;;;;;;4956810;28;20030;-50
2022/08/19 10:42:55;;;;;;;12.70;11.50;;;28.20;85.40;;;;;;4956240;28;20341;-48
2022/08/19 10:45:23;;;;;;;12.88;11.68;;;28.00;86.60;;;;;;4955704;28;20106;-48
2022/08/19 10:47:48;;;;;;;14.38;11.93;;;27.90;87.20;;;;;;4956453;28;20496;-54
2022/08/19 10:53:04;;;;;;;14.57;11.60;;;27.90;87.90;;;;;;4996167;23;20053;-42
2022/08/19 10:58:17;;;;;;;13.52;10.80;;;27.50;87.90;;;;;;4973505;28;20123;-47
2022/08/19 11:00:50;;;;;;;10.90;9.82;;;27.40;87.60;;;;;;4975643;28;20696;-46
2022/08/19 11:03:16;;;;;;;10.85;9.75;;;27.10;88.20;;;;;;4948753;28;20055;-48
2022/08/19 11:05:41;;;;;;;10.27;9.35;;;27.00;88.90;;;;;;4945328;28;20066;-46
2022/08/19 11:08:11;;;;;;;10.88;9.88;;;27.10;88.50;;;;;;4955845;28;20489;-47
2022/08/19 11:10:37;;;;;;;10.02;9.10;;;27.20;87.30;;;;;;4955870;28;20019;-47
2022/08/19 11:13:02;;;;;;;15.02;11.65;;;27.30;86.30;;;;;;4953907;28;20405;-44
2022/08/19 11:15:32;;;;;;;48.67;38.15;;;27.30;86.00;;;;;;4938893;28;20032;-41
2022/08/19 11:17:58;;;;;;;10.80;9.73;;;27.40;85.80;;;;;;4935272;29;20031;-44
2022/08/19 11:20:23;;;;;;;9.95;8.15;;;27.40;84.60;;;;;;4936504;29;20035;-41
2022/08/19 11:22:52;;;;;;;8.30;7.47;;;27.30;84.50;;;;;;4935872;29;20437;-41
2022/08/19 11:25:18;;;;;;;11.70;8.32;;;27.20;85.00;;;;;;4936468;29;20034;-50
2022/08/19 11:27:44;;;;;;;10.32;9.18;;;27.30;84.30;;;;;;4936475;29;20024;-47
2022/08/19 11:30:12;;;;;;;12.52;9.23;;;27.10;85.40;;;;;;4936509;29;20102;-45
2022/08/19 11:32:38;;;;;;;10.55;9.65;;;27.30;86.50;;;;;;4935873;29;20557;-44
2022/08/19 11:35:03;;;;;;;11.48;10.43;;;27.30;87.70;;;;;;4935448;29;20151;-42
2022/08/19 11:37:29;;;;;;;12.13;9.93;;;27.40;87.40;;;;;;4936843;29;20098;-46
2022/08/19 11:39:55;;;;;;;10.43;9.43;;;27.50;86.60;;;;;;4949942;29;20031;-47
2022/08/19 11:45:05;;;;;;;9.75;8.75;;;27.50;86.30;;;;;;4953912;29;20071;-46
2022/08/19 11:47:30;;;;;;;9.82;8.23;;;27.40;86.50;;;;;;4937729;28;20135;-47
2022/08/19 11:49:56;;;;;;;11.90;8.90;;;27.50;86.70;;;;;;4935939;29;20148;-47
2022/08/19 11:52:22;;;;;;;7.20;6.60;;;27.60;86.80;;;;;;4935530;29;20119;-45
2022/08/19 11:54:48;;;;;;;7.45;5.97;;;27.70;85.50;;;;;;4936110;29;20106;-48
2022/08/19 11:57:16;;;;;;;7.10;6.38;;;27.70;84.00;;;;;;4936100;29;20103;-47
2022/08/19 11:59:42;;;;;;;8.45;6.15;;;27.70;83.70;;;;;;4939182;29;20560;-47
2022/08/19 12:02:07;;;;;;;7.70;6.85;;;27.60;83.40;;;;;;4954479;28;20107;-45
2022/08/19 12:04:34;;;;;;;7.32;6.72;;;27.50;84.30;;;;;;4954942;28;20354;-42
2022/08/19 12:06:59;;;;;;;7.80;5.65;;;27.60;85.20;;;;;;4955113;28;20114;-46
2022/08/19 12:09:25;;;;;;;8.70;6.07;;;27.80;84.10;;;;;;4955017;28;20593;-45
2022/08/19 12:11:51;;;;;;;9.27;6.35;;;27.80;83.80;;;;;;4954456;28;20042;-45
2022/08/19 12:14:16;;;;;;;6.72;5.82;;;27.80;83.60;;;;;;4952324;28;20074;-45
2022/08/19 12:16:46;;;;;;;5.03;4.68;;;27.80;84.00;;;;;;4935697;29;20031;-45
2022/08/19 12:19:11;;;;;;;5.85;4.55;;;27.90;82.00;;;;;;4935382;29;20493;-45
2022/08/19 12:21:37;;;;;;;4.97;4.47;;;28.10;81.50;;;;;;4952132;28;20034;-51
2022/08/19 12:24:04;;;;;;;7.20;4.97;;;28.10;80.70;;;;;;4954444;28;20038;-48
2022/08/19 12:26:31;;;;;;;6.25;5.10;;;28.00;80.30;;;;;;4950249;28;20389;-45
2022/08/19 12:28:59;;;;;;;5.50;4.35;;;27.90;80.40;;;;;;4935422;29;20039;-46
2022/08/19 12:31:25;;;;;;;4.47;4.18;;;28.00;80.70;;;;;;4935244;29;20040;-47
2022/08/19 12:33:52;;;;;;;5.88;3.72;;;28.10;79.90;;;;;;4934883;29;20035;-47
2022/08/19 12:36:17;;;;;;;11.23;5.88;;;28.10;79.60;;;;;;4935346;29;20050;-44
2022/08/19 12:38:44;;;;;;;8.02;4.15;;;28.20;79.10;;;;;;4940119;29;20024;-42
2022/08/19 12:41:12;;;;;;;10.13;9.15;;;28.20;78.70;;;;;;4954245;28;20031;-44
2022/08/19 12:43:38;;;;;;;10.82;9.25;;;28.20;79.00;;;;;;4954087;28;20027;-46
2022/08/19 12:46:05;;;;;;;5.00;4.60;;;28.30;79.00;;;;;;4954593;28;20034;-44
2022/08/19 12:48:32;;;;;;;4.75;4.30;;;28.20;78.90;;;;;;4953210;28;20023;-40
2022/08/19 12:50:58;;;;;;;4.78;4.28;;;28.20;80.40;;;;;;4954034;28;20492;-44
2022/08/19 12:53:24;;;;;;;4.18;3.15;;;28.20;78.50;;;;;;4953881;28;20037;-45
2022/08/19 12:55:57;;;;;;;4.57;3.10;;;28.30;77.60;;;;;;4954084;28;20034;-45
2022/08/19 12:58:23;;;;;;;3.40;3.20;;;28.40;77.40;;;;;;4954113;28;20031;-46
2022/08/19 13:00:48;;;;;;;4.43;3.63;;;28.50;76.90;;;;;;4954101;28;20023;-40